createdAt,value
2018-04-24T00:02:23.296Z,24.90
2018-04-24T00:04:53.462Z,24.70
2018-04-24T00:07:22.824Z,24.60
2018-04-24T00:09:53.078Z,24.50
2018-04-24T00:12:22.527Z,24.40
2018-04-24T00:14:51.884Z,24.40
2018-04-24T00:17:21.245Z,24.40
2018-04-24T00:19:50.661Z,24.30
2018-04-24T00:22:21.665Z,24.20
2018-04-24T00:28:13.530Z,24.00
2018-04-24T00:30:43.470Z,24.00
2018-04-24T00:33:12.737Z,23.90
2018-04-24T00:35:42.103Z,23.80
2018-04-24T00:38:11.361Z,23.80
2018-04-24T00:40:41.452Z,23.70
2018-04-24T00:43:10.769Z,23.70
2018-04-24T00:45:40.016Z,23.70
2018-04-24T00:48:09.280Z,23.60
2018-04-24T00:50:38.712Z,23.60
2018-04-24T00:53:19.326Z,23.50
2018-04-24T00:55:48.661Z,23.50
2018-04-24T00:58:17.922Z,23.40
2018-04-24T01:00:47.190Z,23.30
2018-04-24T01:03:16.511Z,23.30
2018-04-24T01:05:46.556Z,23.20
2018-04-24T01:12:09.687Z,23.10
2018-04-24T01:14:39.907Z,23.10
2018-04-24T01:17:09.232Z,23.00
2018-04-24T01:19:40.512Z,22.90
2018-04-24T01:22:10.025Z,22.80
2018-04-24T01:24:39.312Z,22.80
2018-04-24T01:27:09.768Z,22.70
2018-04-24T01:29:39.018Z,22.70
2018-04-24T01:32:08.318Z,22.60
2018-04-24T01:34:37.682Z,22.60
2018-04-24T01:37:06.950Z,22.50
2018-04-24T01:39:36.198Z,22.40
2018-04-24T01:44:45.487Z,22.30
2018-04-24T01:47:14.867Z,22.30
2018-04-24T01:49:44.199Z,22.20
2018-04-24T01:52:13.446Z,22.20
2018-04-24T01:54:42.860Z,22.10
2018-04-24T01:57:13.078Z,22.00
2018-04-24T01:59:43.608Z,22.00
2018-04-24T02:02:12.904Z,21.90
2018-04-24T02:04:42.843Z,21.90
2018-04-24T02:07:12.670Z,21.80
2018-04-24T02:09:41.957Z,21.80
2018-04-24T02:12:11.286Z,21.70
2018-04-24T02:14:40.577Z,21.70
2018-04-24T02:17:10.899Z,21.70
2018-04-24T02:19:40.201Z,21.60
2018-04-24T02:22:12.838Z,21.60
2018-04-24T02:24:42.339Z,21.50
2018-04-24T02:27:11.868Z,21.50
2018-04-24T02:29:41.164Z,21.50
2018-04-24T02:32:11.099Z,21.40
2018-04-24T02:34:40.601Z,21.40
2018-04-24T02:37:10.900Z,21.30
2018-04-24T02:39:40.257Z,21.30
2018-04-24T02:42:10.435Z,21.30
2018-04-24T02:44:40.880Z,21.30
2018-04-24T02:47:10.588Z,21.30
2018-04-24T02:49:39.941Z,21.30
2018-04-24T02:52:09.543Z,21.30
2018-04-24T02:54:38.812Z,21.30
2018-04-24T02:57:08.194Z,21.20
2018-04-24T02:59:37.497Z,21.20
2018-04-24T03:02:06.788Z,21.20
2018-04-24T03:04:36.134Z,21.00
2018-04-24T03:07:06.274Z,20.90
2018-04-24T03:09:35.523Z,20.80
2018-04-24T03:12:04.839Z,20.70
2018-04-24T03:14:34.126Z,20.70
2018-04-24T03:17:03.429Z,20.60
2018-04-24T03:19:32.772Z,20.50
2018-04-24T03:22:02.049Z,20.50
2018-04-24T03:24:31.317Z,20.50
2018-04-24T03:27:00.635Z,20.50
2018-04-24T03:29:31.612Z,20.50
2018-04-24T03:32:02.670Z,20.40
2018-04-24T03:34:35.879Z,20.40
2018-04-24T03:37:05.342Z,20.30
2018-04-24T03:39:35.334Z,20.30
2018-04-24T03:42:04.854Z,20.20
2018-04-24T03:44:34.150Z,20.20
2018-04-24T03:47:03.414Z,20.20
2018-04-24T03:49:32.912Z,20.20
2018-04-24T03:52:03.287Z,20.10
2018-04-24T03:54:33.378Z,20.00
2018-04-24T03:57:03.212Z,20.00
2018-04-24T03:59:32.475Z,20.00
2018-04-24T04:02:03.751Z,19.90
2018-04-24T04:04:33.050Z,19.80
2018-04-24T04:07:02.370Z,19.80
2018-04-24T04:09:31.918Z,19.80
2018-04-24T04:15:32.431Z,19.80
2018-04-24T04:21:35.142Z,19.60
2018-04-24T04:24:15.877Z,19.60
2018-04-24T04:26:45.460Z,19.60
2018-04-24T04:29:15.729Z,19.50
2018-04-24T04:31:45.297Z,19.50
2018-04-24T04:34:14.843Z,19.50
2018-04-24T04:36:44.369Z,19.50
2018-04-24T04:39:13.942Z,19.50
2018-04-24T04:41:44.274Z,19.50
2018-04-24T04:44:13.911Z,19.40
2018-04-24T04:46:43.419Z,19.50
2018-04-24T04:49:12.982Z,19.50
2018-04-24T04:51:42.576Z,19.40
2018-04-24T04:54:12.096Z,19.40
2018-04-24T04:56:41.666Z,19.40
2018-04-24T04:59:12.127Z,19.30
2018-04-24T05:01:41.823Z,19.30
2018-04-24T05:04:11.323Z,19.30
2018-04-24T05:06:40.914Z,19.30
2018-04-24T05:09:10.439Z,19.30
2018-04-24T05:11:40.213Z,19.30
2018-04-24T05:14:09.854Z,19.30
2018-04-24T05:16:42.267Z,19.30
2018-04-24T05:19:12.755Z,19.20
2018-04-24T05:21:46.283Z,19.10
2018-04-24T05:24:16.728Z,19.10
2018-04-24T05:26:46.304Z,19.10
2018-04-24T05:29:15.800Z,19.10
2018-04-24T05:31:45.362Z,19.10
2018-04-24T05:34:15.417Z,19.10
2018-04-24T05:36:45.420Z,19.10
2018-04-24T05:39:16.307Z,19.10
2018-04-24T05:41:46.030Z,19.00
2018-04-24T05:44:17.151Z,19.00
2018-04-24T05:46:48.258Z,19.00
2018-04-24T05:52:38.674Z,18.90
2018-04-24T05:55:08.038Z,18.90
2018-04-24T05:57:37.415Z,18.80
2018-04-24T06:00:06.836Z,18.90
2018-04-24T06:02:36.187Z,18.80
2018-04-24T06:05:05.584Z,18.80
2018-04-24T06:07:35.407Z,18.70
2018-04-24T06:10:04.764Z,18.70
2018-04-24T06:12:34.130Z,18.70
2018-04-24T06:15:03.579Z,18.60
2018-04-24T06:17:33.795Z,18.50
2018-04-24T06:20:03.426Z,18.50
2018-04-24T06:22:32.800Z,18.40
2018-04-24T06:25:03.165Z,18.40
2018-04-24T06:27:32.584Z,18.30
2018-04-24T06:30:02.001Z,18.30
2018-04-24T06:32:31.419Z,18.20
2018-04-24T06:35:00.785Z,18.20
2018-04-24T06:40:50.717Z,18.10
2018-04-24T06:43:20.224Z,18.10
2018-04-24T06:45:49.613Z,18.10
2018-04-24T06:48:19.157Z,18.10
2018-04-24T06:51:26.135Z,18.00
2018-04-24T06:53:55.762Z,17.90
2018-04-24T06:56:25.422Z,17.80
2018-04-24T06:58:55.112Z,17.80
2018-04-24T07:01:25.559Z,17.70
2018-04-24T07:03:55.181Z,17.70
2018-04-24T07:06:25.237Z,17.70
2018-04-24T07:08:55.590Z,17.70
2018-04-24T07:11:25.298Z,17.60
2018-04-24T07:13:55.169Z,17.60
2018-04-24T07:16:24.997Z,17.60
2018-04-24T07:18:54.683Z,17.50
2018-04-24T07:21:24.267Z,17.50
2018-04-24T07:23:54.089Z,17.40
2018-04-24T07:26:23.814Z,17.40
2018-04-24T07:28:53.657Z,17.50
2018-04-24T07:31:23.643Z,17.60
2018-04-24T07:33:53.352Z,17.60
2018-04-24T07:36:49.033Z,17.60
2018-04-24T07:39:19.481Z,17.70
2018-04-24T07:41:49.165Z,17.60
2018-04-24T07:44:18.821Z,17.70
2018-04-24T07:46:48.500Z,17.70
2018-04-24T07:50:05.070Z,17.70
2018-04-24T07:52:34.724Z,17.60
2018-04-24T07:55:04.138Z,17.60
2018-04-24T07:57:34.454Z,17.70
2018-04-24T08:00:03.778Z,17.60
2018-04-24T08:02:33.988Z,17.80
2018-04-24T08:05:03.494Z,17.70
2018-04-24T08:07:33.984Z,17.80
2018-04-24T08:10:03.299Z,17.80
2018-04-24T08:12:32.584Z,17.70
2018-04-24T08:15:02.530Z,17.70
2018-04-24T08:17:31.842Z,17.70
2018-04-24T08:20:01.149Z,17.70
2018-04-24T08:22:41.000Z,17.60
2018-04-24T08:25:11.026Z,17.50
2018-04-24T08:27:40.328Z,17.50
2018-04-24T08:30:09.672Z,17.50
2018-04-24T08:32:39.122Z,17.60
2018-04-24T08:35:08.412Z,17.70
2018-04-24T08:37:37.785Z,17.80
2018-04-24T08:40:07.342Z,17.90
2018-04-24T08:42:37.429Z,18.00
2018-04-24T08:45:07.467Z,17.90
2018-04-24T08:50:58.047Z,17.90
2018-04-24T08:53:27.212Z,18.00
2018-04-24T08:55:56.411Z,17.90
2018-04-24T08:58:25.704Z,17.90
2018-04-24T09:00:54.899Z,17.90
2018-04-24T09:03:24.151Z,17.90
2018-04-24T09:05:53.772Z,17.90
2018-04-24T09:08:23.129Z,17.90
2018-04-24T09:10:52.329Z,17.90
2018-04-24T09:13:21.590Z,17.90
2018-04-24T09:15:50.785Z,17.90
2018-04-24T09:18:19.994Z,17.90
2018-04-24T09:20:49.238Z,17.90
2018-04-24T09:23:18.444Z,17.90
2018-04-24T09:25:47.647Z,17.80
2018-04-24T09:28:16.877Z,17.90
2018-04-24T09:30:46.089Z,17.90
2018-04-24T09:33:15.285Z,17.80
2018-04-24T09:35:44.531Z,17.80
2018-04-24T09:38:13.702Z,17.80
2018-04-24T09:40:42.934Z,17.80
2018-04-24T09:43:12.216Z,17.80
2018-04-24T09:45:42.193Z,17.70
2018-04-24T09:48:47.217Z,17.70
2018-04-24T09:51:17.568Z,17.70
2018-04-24T09:53:47.086Z,17.70
2018-04-24T09:56:16.714Z,17.70
2018-04-24T09:58:46.402Z,17.70
2018-04-24T10:01:15.969Z,17.70
2018-04-24T10:03:45.539Z,17.80
2018-04-24T10:06:14.997Z,17.70
2018-04-24T10:08:44.589Z,17.60
2018-04-24T10:11:14.031Z,17.60
2018-04-24T10:13:43.577Z,17.50
2018-04-24T10:16:13.126Z,17.40
2018-04-24T10:18:44.243Z,17.30
2018-04-24T10:21:13.705Z,17.30
2018-04-24T10:23:43.279Z,17.30
2018-04-24T10:26:12.701Z,17.30
2018-04-24T10:32:13.960Z,17.10
2018-04-24T10:34:43.308Z,17.00
2018-04-24T10:37:12.668Z,17.10
2018-04-24T10:39:42.045Z,17.00
2018-04-24T10:42:11.374Z,17.00
2018-04-24T10:48:01.799Z,16.90
2018-04-24T10:50:31.309Z,16.90
2018-04-24T10:53:01.491Z,16.90
2018-04-24T10:55:30.931Z,16.80
2018-04-24T11:01:22.316Z,16.90
2018-04-24T11:03:51.626Z,17.00
2018-04-24T11:06:21.033Z,17.00
2018-04-24T11:08:50.414Z,17.10
2018-04-24T11:11:19.848Z,17.10
2018-04-24T11:13:49.234Z,17.20
2018-04-24T11:16:18.887Z,17.20
2018-04-24T11:18:48.321Z,17.20
2018-04-24T11:21:17.889Z,17.10
2018-04-24T11:23:47.494Z,17.10
2018-04-24T11:26:16.950Z,17.10
2018-04-24T11:32:07.576Z,17.00
2018-04-24T11:34:40.145Z,16.90
2018-04-24T11:37:10.958Z,16.90
2018-04-24T11:39:42.485Z,16.90
2018-04-24T11:42:12.167Z,16.90
2018-04-24T11:44:41.795Z,17.00
2018-04-24T11:47:14.574Z,17.00
2018-04-24T11:49:45.125Z,17.10
2018-04-24T11:52:14.877Z,17.10
2018-04-24T11:54:44.525Z,17.20
2018-04-24T12:00:45.305Z,17.20
2018-04-24T12:03:15.021Z,17.30
2018-04-24T12:09:05.859Z,17.40
2018-04-24T12:11:35.313Z,17.50
2018-04-24T12:14:04.853Z,17.40
2018-04-24T12:16:34.319Z,17.30
2018-04-24T12:19:05.114Z,17.40
2018-04-24T12:22:11.821Z,17.40
2018-04-24T12:24:41.104Z,17.50
2018-04-24T12:27:10.609Z,17.80
2018-04-24T12:29:39.947Z,18.10
2018-04-24T12:32:09.323Z,18.20
2018-04-24T12:37:59.912Z,18.50
2018-04-24T12:40:29.471Z,18.70
2018-04-24T12:42:59.210Z,18.90
2018-04-24T12:45:28.828Z,19.00
2018-04-24T12:47:58.290Z,19.20
2018-04-24T12:50:27.871Z,19.30
2018-04-24T12:52:57.633Z,19.70
2018-04-24T12:55:27.206Z,19.90
2018-04-24T12:57:56.750Z,19.90
2018-04-24T13:00:26.308Z,20.00
2018-04-24T13:02:55.837Z,20.20
2018-04-24T13:05:25.524Z,20.10
2018-04-24T13:11:15.875Z,20.40
2018-04-24T13:13:45.130Z,20.50
2018-04-24T13:16:14.282Z,20.70
2018-04-24T13:18:43.609Z,20.70
2018-04-24T13:21:13.581Z,21.00
2018-04-24T13:24:13.480Z,21.00
2018-04-24T13:26:42.813Z,21.10
2018-04-24T13:29:12.204Z,21.20
2018-04-24T13:31:41.605Z,21.30
2018-04-24T13:34:10.953Z,21.60
2018-04-24T13:36:40.437Z,21.60
2018-04-24T13:39:09.896Z,21.50
2018-04-24T13:41:39.229Z,21.60
2018-04-24T13:44:08.641Z,21.90
2018-04-24T13:46:39.814Z,22.10
2018-04-24T13:49:09.214Z,22.30
2018-04-24T13:51:39.131Z,22.40
2018-04-24T13:54:08.585Z,22.50
2018-04-24T13:56:38.036Z,22.50
2018-04-24T13:59:07.610Z,22.50
2018-04-24T14:01:45.407Z,22.40
2018-04-24T14:04:17.995Z,22.50
2018-04-24T14:06:50.646Z,22.50
2018-04-24T14:09:20.554Z,22.90
2018-04-24T14:11:49.822Z,22.80
2018-04-24T14:14:19.196Z,23.10
2018-04-24T14:16:48.479Z,23.30
2018-04-24T14:19:17.902Z,23.50
2018-04-24T14:21:47.265Z,23.90
2018-04-24T14:24:17.031Z,23.70
2018-04-24T14:26:46.337Z,23.50
2018-04-24T14:29:15.904Z,23.50
2018-04-24T14:31:45.380Z,23.30
2018-04-24T14:34:14.801Z,23.40
2018-04-24T14:36:44.224Z,23.60
2018-04-24T14:39:13.646Z,24.20
2018-04-24T14:41:43.920Z,24.10
2018-04-24T14:44:17.153Z,24.40
2018-04-24T14:46:46.674Z,24.40
2018-04-24T14:49:16.860Z,24.60
2018-04-24T14:51:46.284Z,24.60
2018-04-24T14:54:15.643Z,25.00
2018-04-24T14:56:45.141Z,25.40
2018-04-24T14:59:16.516Z,25.00
2018-04-24T15:01:46.135Z,24.50
2018-04-24T15:04:17.387Z,24.60
2018-04-24T15:06:46.976Z,24.60
2018-04-24T15:09:19.510Z,24.90
2018-04-24T15:11:53.911Z,25.20
2018-04-24T15:14:23.386Z,25.20
2018-04-24T15:16:52.805Z,25.20
2018-04-24T15:19:22.182Z,25.20
2018-04-24T15:21:51.748Z,25.20
2018-04-24T15:24:22.042Z,25.70
2018-04-24T15:26:52.586Z,25.70
2018-04-24T15:29:23.611Z,26.00
2018-04-24T15:31:53.206Z,25.70
2018-04-24T15:37:53.536Z,26.10
2018-04-24T15:40:22.856Z,26.40
2018-04-24T15:42:52.158Z,26.40
2018-04-24T15:45:21.564Z,26.40
2018-04-24T15:47:51.053Z,26.40
2018-04-24T15:50:20.361Z,27.00
2018-04-24T15:52:49.782Z,27.20
2018-04-24T15:55:19.107Z,27.20
2018-04-24T15:57:48.425Z,27.20
2018-04-24T16:00:17.792Z,27.20
2018-04-24T16:02:47.177Z,27.50
2018-04-24T16:05:17.282Z,27.10
2018-04-24T16:07:48.455Z,27.10
2018-04-24T16:10:18.065Z,27.30
2018-04-24T16:12:47.416Z,27.40
2018-04-24T16:15:16.766Z,27.30
2018-04-24T16:17:46.059Z,27.60
2018-04-24T16:20:15.404Z,27.90
2018-04-24T16:22:44.827Z,27.60
2018-04-24T16:25:14.168Z,27.60
2018-04-24T16:27:43.516Z,27.90
2018-04-24T16:30:12.961Z,28.20
2018-04-24T16:32:43.139Z,28.60
2018-04-24T16:35:12.492Z,28.50
2018-04-24T16:37:41.870Z,29.20
2018-04-24T16:40:11.211Z,29.50
2018-04-24T16:42:40.693Z,29.20
2018-04-24T16:45:10.262Z,29.30
2018-04-24T16:47:39.604Z,30.00
2018-04-24T16:50:08.964Z,29.50
2018-04-24T16:52:38.490Z,28.60
2018-04-24T16:55:07.779Z,28.10
2018-04-24T16:57:37.332Z,28.20
2018-04-24T17:00:06.872Z,28.60
2018-04-24T17:02:38.231Z,28.60
2018-04-24T17:05:07.647Z,28.60
2018-04-24T17:07:36.977Z,28.80
2018-04-24T17:10:06.404Z,29.30
2018-04-24T17:12:35.791Z,30.10
2018-04-24T17:15:05.320Z,29.80
2018-04-24T17:17:34.705Z,29.60
2018-04-24T17:20:04.158Z,29.20
2018-04-24T17:22:33.560Z,28.80
2018-04-24T17:25:03.912Z,29.30
2018-04-24T17:27:33.376Z,29.50
2018-04-24T17:30:03.066Z,29.70
2018-04-24T17:32:32.667Z,29.90
2018-04-24T17:35:02.139Z,29.70
2018-04-24T17:37:31.486Z,29.60
2018-04-24T17:40:01.119Z,29.50
2018-04-24T17:42:30.510Z,29.60
2018-04-24T17:45:00.223Z,29.70
2018-04-24T17:47:29.512Z,29.60
2018-04-24T17:49:58.937Z,29.40
2018-04-24T17:52:29.039Z,29.50
2018-04-24T17:54:58.356Z,29.50
2018-04-24T17:57:27.709Z,29.70
2018-04-24T17:59:57.008Z,29.90
2018-04-24T18:02:26.337Z,30.00
2018-04-24T18:04:55.722Z,29.80
2018-04-24T18:07:25.838Z,29.60
2018-04-24T18:09:59.054Z,29.60
2018-04-24T18:12:28.393Z,29.40
2018-04-24T18:14:57.727Z,29.50
2018-04-24T18:17:27.065Z,29.70
2018-04-24T18:19:57.176Z,29.40
2018-04-24T18:22:27.295Z,29.20
2018-04-24T18:24:56.688Z,29.10
2018-04-24T18:31:20.959Z,29.60
2018-04-24T18:33:50.253Z,29.50
2018-04-24T18:36:20.361Z,29.50
2018-04-24T18:38:49.660Z,29.50
2018-04-24T18:41:18.938Z,29.60
2018-04-24T18:43:48.159Z,29.60
2018-04-24T18:46:17.486Z,29.60
2018-04-24T18:48:47.477Z,29.90
2018-04-24T18:51:16.785Z,29.90
2018-04-24T18:53:46.036Z,29.60
2018-04-24T18:56:15.281Z,30.20
2018-04-24T18:58:44.568Z,30.40
2018-04-24T19:01:13.860Z,30.20
2018-04-24T19:03:43.105Z,29.90
2018-04-24T19:06:12.591Z,29.90
2018-04-24T19:08:42.452Z,29.70
2018-04-24T19:11:12.638Z,29.80
2018-04-24T19:13:42.057Z,29.90
2018-04-24T19:16:11.411Z,29.90
2018-04-24T19:18:46.046Z,29.90
2018-04-24T19:21:16.101Z,29.90
2018-04-24T19:23:48.289Z,29.80
2018-04-24T19:26:17.619Z,29.90
2018-04-24T19:28:47.070Z,29.80
2018-04-24T19:31:21.644Z,30.00
2018-04-24T19:33:51.708Z,29.90
2018-04-24T19:36:21.038Z,29.90
2018-04-24T19:38:56.141Z,30.00
2018-04-24T19:41:30.882Z,29.80
2018-04-24T19:44:00.738Z,30.00
2018-04-24T19:46:38.068Z,30.00
2018-04-24T19:49:15.509Z,30.00
2018-04-24T19:51:50.072Z,29.80
2018-04-24T19:54:21.078Z,29.60
2018-04-24T19:56:53.858Z,29.40
2018-04-24T20:02:52.075Z,30.30
2018-04-24T20:05:26.931Z,29.50
2018-04-24T20:08:36.770Z,29.40
2018-04-24T20:11:10.872Z,30.00
2018-04-24T20:13:40.649Z,30.00
2018-04-24T20:16:10.968Z,30.20
2018-04-24T20:18:41.151Z,30.40
2018-04-24T20:21:12.145Z,30.40
2018-04-24T20:23:41.727Z,30.70
2018-04-24T20:26:11.243Z,30.30
2018-04-24T20:28:40.691Z,30.40
2018-04-24T20:31:10.613Z,30.10
2018-04-24T20:33:40.184Z,29.90
2018-04-24T20:36:10.109Z,29.80
2018-04-24T20:38:39.550Z,29.30
2018-04-24T20:41:09.514Z,29.20
2018-04-24T20:43:40.729Z,29.30
2018-04-24T20:46:10.495Z,29.20
2018-04-24T20:48:40.078Z,29.00
2018-04-24T20:51:18.314Z,29.30
2018-04-24T20:53:48.850Z,29.30
2018-04-24T20:56:18.235Z,29.80
2018-04-24T20:58:48.762Z,30.30
2018-04-24T21:01:23.449Z,30.20
2018-04-24T21:03:53.249Z,29.60
2018-04-24T21:06:22.738Z,29.20
2018-04-24T21:08:52.181Z,28.90
2018-04-24T21:11:21.696Z,28.60
2018-04-24T21:17:23.892Z,28.70
2018-04-24T21:19:53.596Z,29.30
2018-04-24T21:22:24.227Z,29.70
2018-04-24T21:24:57.774Z,29.60
2018-04-24T21:27:31.321Z,29.60
2018-04-24T21:30:02.944Z,29.70
2018-04-24T21:32:33.727Z,29.30
2018-04-24T21:35:03.606Z,29.20
2018-04-24T21:37:43.076Z,28.90
2018-04-24T21:40:13.132Z,28.60
2018-04-24T21:42:42.537Z,28.70
2018-04-24T21:45:12.853Z,29.00
2018-04-24T21:47:42.295Z,29.00
2018-04-24T21:50:11.708Z,28.80
2018-04-24T21:52:41.118Z,28.60
2018-04-24T21:55:10.601Z,28.40
2018-04-24T21:57:40.005Z,28.30
2018-04-24T22:00:09.606Z,28.40
2018-04-24T22:02:39.044Z,28.50
2018-04-24T22:05:08.435Z,28.50
2018-04-24T22:07:37.855Z,28.20
2018-04-24T22:10:07.296Z,28.00
2018-04-24T22:12:36.695Z,28.10
2018-04-24T22:15:06.207Z,28.30
2018-04-24T22:17:35.675Z,28.40
2018-04-24T22:20:06.377Z,28.40
2018-04-24T22:22:35.973Z,28.40
2018-04-24T22:25:05.440Z,28.30
2018-04-24T22:27:34.846Z,28.20
2018-04-24T22:30:05.269Z,28.20
2018-04-24T22:32:34.919Z,28.10
2018-04-24T22:35:04.448Z,28.00
2018-04-24T22:37:34.091Z,28.20
2018-04-24T22:40:03.498Z,28.10
2018-04-24T22:42:32.891Z,27.60
2018-04-24T22:45:02.364Z,27.50
2018-04-24T22:47:33.157Z,27.60
2018-04-24T22:50:04.303Z,27.80
2018-04-24T22:52:35.360Z,27.90
2018-04-24T22:55:05.164Z,27.80
2018-04-24T22:57:34.725Z,27.60
2018-04-24T23:00:06.003Z,27.30
2018-04-24T23:02:36.258Z,27.10
2018-04-24T23:05:06.182Z,27.00
2018-04-24T23:07:37.140Z,27.00
2018-04-24T23:10:07.248Z,26.90
2018-04-24T23:12:47.969Z,26.60
2018-04-24T23:18:58.501Z,25.90
2018-04-24T23:21:28.309Z,25.70
2018-04-24T23:24:00.033Z,25.60
2018-04-24T23:26:29.724Z,25.50
2018-04-24T23:28:59.187Z,25.40
2018-04-24T23:31:28.662Z,25.30
2018-04-24T23:33:59.246Z,25.30
2018-04-24T23:36:28.927Z,25.20
2018-04-24T23:38:58.348Z,25.00
2018-04-24T23:41:29.739Z,24.90
2018-04-24T23:43:59.146Z,24.90
2018-04-24T23:46:28.610Z,24.80
2018-04-24T23:48:58.231Z,24.80
2018-04-24T23:51:31.039Z,24.80
2018-04-24T23:54:00.645Z,24.60
2018-04-24T23:56:30.411Z,24.50
2018-04-24T23:59:00.003Z,24.50
